Independence of the Seas — C6WW4 — position and weather

sailwx.info

Track history (hours):
 
Tides and Currents Weather Stations Pressure Air Temp Water Temp Dewpoint Dewpoint Depression Visibility Wind Speed Wind Dir Waves Ship Positions

Independence of the Seas

Last reported at 2019-Aug-24 06:23 UTC. Time now 2019-Aug-24 06:42 UTC.
Position N 50°54' W 001°25'.

Length 339 m; draft 9 m.

Type: Passenger vessel. MMSI: 309374000.

Date/timePositionNaut miles runAvg speedWind from/ knotsBaromVisibWave heightAir tempDewpointWater temp
2019-Aug-24 06:23N 50°54' W 001°25'0 0.0
2019-Aug-24 05:53N 50°54' W 001°25'0 0.0
2019-Aug-24 05:17N 50°54' W 001°25'0 0.0
2019-Aug-24 04:59N 50°54' W 001°25'0 0.0
2019-Aug-24 04:29N 50°54' W 001°25'0 0.1
2019-Aug-24 04:00N 50°54' W 001°25'3 5.4
2019-Aug-24 03:30N 50°52' W 001°22'5 9.3
2019-Aug-24 03:00N 50°48' W 001°18'611.2
2019-Aug-24 02:30N 50°46' W 001°10'817.0
2019-Aug-24 02:00N 50°42' W 000°58'612.2
2019-Aug-24 01:31N 50°36' W 001°00'918.1
2019-Aug-24 01:01N 50°29' W 001°09'1019.5
2019-Aug-24 00:31N 50°25' W 001°23'1020.1
2019-Aug-24 00:00N 50°19' W 001°36'1020.2
2019-Aug-23 23:31N 50°12' W 001°47'1020.0
2019-Aug-23 23:01N 50°06' W 002°00'1121.0
2019-Aug-23 22:30N 50°00' W 002°14'1020.9
2019-Aug-23 22:00N 49°55' W 002°28'181197.7
2019-Aug-23 22:00N 49°48' W 002°54'816.6 090 / 221019.310.8 18.214.017.0
2019-Aug-23 21:30N 49°51' W 002°43'1020.3
2019-Aug-23 21:01N 49°47' W 002°57'1020.2
2019-Aug-23 20:31N 49°42' W 003°10'1020.2
2019-Aug-23 20:01N 49°36' W 003°23'1020.3
2019-Aug-23 19:31N 49°30' W 003°35'1020.3
2019-Aug-23 19:01N 49°23' W 003°47'1019.1
2019-Aug-23 18:31N 49°17' W 003°59'917.6
2019-Aug-23 18:01N 49°12' W 004°09'181045.0
2019-Aug-23 18:00N 49°00' W 004°30'919.3 080 / 221022.8 5.4 18.614.8
2019-Aug-23 17:31N 49°07' W 004°20'917.5
2019-Aug-23 17:00N 49°01' W 004°31'917.3
2019-Aug-23 16:31N 48°56' W 004°41'917.0
2019-Aug-23 16:01N 48°51' W 004°51'816.7
2019-Aug-23 15:31N 48°45' W 005°01'816.5
2019-Aug-23 15:01N 48°40' W 005°10'816.5
2019-Aug-23 14:30N 48°34' W 005°19'816.8
2019-Aug-23 14:01N 48°28' W 005°27'816.7
2019-Aug-23 13:31N 48°21' W 005°34'917.1
2019-Aug-23 13:00N 48°13' W 005°41'917.6
2019-Aug-23 12:31N 48°06' W 005°47'918.0
2019-Aug-23 12:01N 47°58' W 005°54'11625.2
2019-Aug-23 12:00N 47°48' W 006°00'2 3.7 100 / 171020.927.0 19.215.522.0
2019-Aug-23 11:30N 47°50' W 006°00'917.9
2019-Aug-23 11:01N 47°42' W 006°07'918.2
2019-Aug-23 10:31N 47°34' W 006°14'917.8
2019-Aug-23 10:00N 47°26' W 006°20'918.3
2019-Aug-23 09:31N 47°19' W 006°27'918.5
2019-Aug-23 09:01N 47°11' W 006°34'918.1
2019-Aug-23 08:30N 47°03' W 006°41'918.2
2019-Aug-23 08:00N 46°55' W 006°47'918.3
2019-Aug-23 07:31N 46°47' W 006°54'918.2
2019-Aug-23 07:01N 46°39' W 007°01'918.2
2019-Aug-23 06:31N 46°31' W 007°07'918.3
2019-Aug-23 06:01N 46°23' W 007°14'918.6
2019-Aug-23 05:31N 46°15' W 007°20'1018.9
2019-Aug-23 05:00N 46°07' W 007°27'918.4
2019-Aug-23 04:31N 45°59' W 007°33'1019.0
2019-Aug-23 04:00N 45°50' W 007°40'918.8
2019-Aug-23 03:30N 45°42' W 007°47'918.2
2019-Aug-23 03:00N 45°34' W 007°53'918.7
2019-Aug-23 02:31N 45°26' W 008°00'1618.2
2019-Aug-23 01:36N 45°12' W 008°12'1718.3
2019-Aug-23 00:40N 44°57' W 008°24'1418.3
2019-Aug-22 23:53N 44°45' W 008°33'1418.2
2019-Aug-22 23:06N 44°32' W 008°43'917.8
2019-Aug-22 22:36N 44°24' W 008°49'217.5
2019-Aug-22 22:30N 44°23' W 008°51'917.9
2019-Aug-22 22:00N 44°15' W 008°57'2219.7
2019-Aug-22 20:52N 43°56' W 009°12'720.1
2019-Aug-22 20:31N 43°49' W 009°17'24419.5
2019-Aug-22 07:58N 39°47' W 009°53'918.2
2019-Aug-22 07:30N 39°38' W 009°53'918.3
2019-Aug-22 07:00N 39°29' W 009°54'918.3
2019-Aug-22 06:30N 39°20' W 009°53'918.0
2019-Aug-22 06:01N 39°11' W 009°53'918.2
2019-Aug-22 05:31N 39°02' W 009°52'918.2
2019-Aug-22 05:01N 38°53' W 009°52'918.3
2019-Aug-22 04:31N 38°44' W 009°51'918.2
2019-Aug-22 04:01N 38°35' W 009°50'917.8
2019-Aug-22 03:31N 38°26' W 009°47'917.6
2019-Aug-22 03:01N 38°18' W 009°45'917.6
2019-Aug-22 02:31N 38°09' W 009°42'917.9
2019-Aug-22 02:00N 38°00' W 009°40'918.1
2019-Aug-22 01:31N 37°52' W 009°37'918.2
2019-Aug-22 01:01N 37°43' W 009°34'3202.9
2019-Aug-22 01:00N 37°42' W 009°30'816.6 330 / 151016.410.8 19.216.718.0
2019-Aug-22 00:30N 37°34' W 009°31'918.8
2019-Aug-22 00:00N 37°25' W 009°29'918.9
2019-Aug-21 23:30N 37°16' W 009°26'918.6
2019-Aug-21 23:01N 37°07' W 009°23'918.2
2019-Aug-21 22:30N 36°58' W 009°20'918.1
2019-Aug-21 22:00N 36°50' W 009°14'918.3
2019-Aug-21 21:30N 36°45' W 009°05'918.7
2019-Aug-21 21:01N 36°43' W 008°53'918.8
2019-Aug-21 20:30N 36°43' W 008°42'918.4
2019-Aug-21 20:00N 36°42' W 008°30'1018.5
2019-Aug-21 19:29N 36°41' W 008°18'121 6.2
2019-Aug-21 00:00N 35°54' W 006°00'2530.3 100 / 91016.410.8 20.417.825.0
2019-Aug-20 23:11N 35°60' W 005°30'102 5.6
2019-Aug-20 05:00N 36°30' W 003°30'8721.7 120 / 91014.4 5.4 22.520.4
2019-Aug-20 01:00N 36°36' W 001°42'18317.0 120 / 11014.510.8 25.121.825.0
2019-Aug-19 14:16N 39°26' W 000°17'2 7.2
2019-Aug-19 14:00N 39°27' W 000°18'0 0.5
2019-Aug-19 13:30N 39°28' W 000°18'0 0.0
2019-Aug-19 13:00N 39°28' W 000°18'0 0.0
2019-Aug-19 12:30N 39°28' W 000°18'0 0.0
2019-Aug-19 12:00N 39°28' W 000°18'4248.1
2019-Aug-19 12:00N 39°24' W 000°18'4 7.4 060 / 171015.827.0 22.817.724.0
2019-Aug-19 11:30N 39°28' W 000°18'0 0.0
2019-Aug-19 11:00N 39°28' W 000°18'0 0.0
2019-Aug-19 10:30N 39°28' W 000°18'0 0.0
2019-Aug-19 10:00N 39°28' W 000°18'0 0.0
2019-Aug-19 09:30N 39°28' W 000°18'0 0.0
2019-Aug-19 09:00N 39°28' W 000°18'0 0.0
2019-Aug-19 08:30N 39°28' W 000°18'0 0.0
2019-Aug-19 08:00N 39°28' W 000°18'0 0.0
2019-Aug-19 07:30N 39°28' W 000°18'0 0.0
2019-Aug-19 07:00N 39°28' W 000°18'0 0.0
2019-Aug-19 06:30N 39°28' W 000°18'0 0.0
2019-Aug-19 06:00N 39°28' W 000°18'0 0.0
2019-Aug-19 05:30N 39°28' W 000°18'0 0.1
2019-Aug-19 05:00N 39°28' W 000°18'3 5.3
2019-Aug-19 04:30N 39°25' W 000°16'5215.5
2019-Aug-19 01:11N 39°15' E 000°49'315.3
2019-Aug-19 01:00N 39°14' E 000°53'4 4.4
2019-Aug-19 00:00N 39°12' E 000°48'4027.1 160 / 221012.810.8 25.723.726.0
2019-Aug-18 22:31N 39°06' E 001°39'015.4
2019-Aug-18 22:30N 39°06' E 001°39'713.7
2019-Aug-18 22:00N 38°59' E 001°39'715.0
2019-Aug-18 21:30N 38°55' E 001°31'3 4.8
2019-Aug-18 20:52N 38°54' E 001°27'0 0.0
2019-Aug-18 20:28N 38°54' E 001°27'0 0.0
2019-Aug-18 19:58N 38°54' E 001°27'0 0.0
2019-Aug-18 19:22N 38°54' E 001°27'0 0.0
2019-Aug-18 18:55N 38°54' E 001°27'0 0.0
2019-Aug-18 18:28N 38°54' E 001°27'0 0.0
2019-Aug-18 17:55N 38°54' E 001°27'0 0.0
2019-Aug-18 17:28N 38°54' E 001°27'0 0.0
2019-Aug-18 16:55N 38°54' E 001°27'0 0.0
2019-Aug-18 16:28N 38°54' E 001°27'0 0.0
2019-Aug-18 15:58N 38°54' E 001°27'0 0.0
2019-Aug-18 15:16N 38°54' E 001°27'0 0.0
2019-Aug-18 14:58N 38°54' E 001°27'0 0.0
2019-Aug-18 14:28N 38°54' E 001°27'0 0.0
2019-Aug-18 13:52N 38°54' E 001°27'0 0.0
2019-Aug-18 13:28N 38°54' E 001°27'0 0.0
2019-Aug-18 12:58N 38°54' E 001°27'0 0.0
2019-Aug-18 12:28N 38°54' E 001°27'0 0.0
2019-Aug-18 11:55N 38°54' E 001°27'0 0.0
2019-Aug-18 11:25N 38°54' E 001°27'0 0.0
2019-Aug-18 10:58N 38°54' E 001°27'0 0.0
2019-Aug-18 10:28N 38°54' E 001°27'0 0.0
2019-Aug-18 09:55N 38°54' E 001°27'0 0.0
2019-Aug-18 09:13N 38°54' E 001°27'0 0.0
2019-Aug-18 08:58N 38°54' E 001°27'0 0.0
2019-Aug-18 08:25N 38°54' E 001°27'0 0.0
2019-Aug-18 07:58N 38°54' E 001°27'0 0.0
2019-Aug-18 06:49N 38°54' E 001°27'0 0.0
2019-Aug-18 06:28N 38°54' E 001°27'0 0.0
2019-Aug-18 05:58N 38°54' E 001°27'0 0.1
2019-Aug-18 05:12N 38°54' E 001°27'0 1.2
2019-Aug-18 04:55N 38°54' E 001°27'4 8.8
2019-Aug-18 04:30N 38°55' E 001°32'714.1
2019-Aug-18 04:00N 38°59' E 001°39'3812.5
2019-Aug-18 01:00N 39°36' E 001°48'1817.3 130 / 231014.110.8 25.722.624.0
2019-Aug-17 23:56N 39°54' E 001°52'613.9
2019-Aug-17 23:30N 39°60' E 001°54'2114.5
2019-Aug-17 22:03N 40°21' E 001°58'114.4
2019-Aug-17 22:00N 40°21' E 001°58'1014.2
2019-Aug-17 21:18N 40°31' E 002°01'2914.3
2019-Aug-17 19:17N 40°60' E 002°07'414.4
2019-Aug-17 19:00N 41°03' E 002°09'714.1
2019-Aug-17 18:30N 41°10' E 002°10'1110.8
2019-Aug-17 17:30N 41°21' E 002°10'0 0.6
2019-Aug-17 16:59N 41°22' E 002°11'0 0.0
2019-Aug-17 16:29N 41°22' E 002°11'0 0.0
2019-Aug-17 15:59N 41°22' E 002°11'0 0.0
2019-Aug-17 15:29N 41°22' E 002°11'0 0.0
2019-Aug-17 14:59N 41°22' E 002°11'0 0.0
2019-Aug-17 14:29N 41°22' E 002°11'0 0.0
2019-Aug-17 13:59N 41°22' E 002°11'0 0.0
2019-Aug-17 13:29N 41°22' E 002°11'510.0
2019-Aug-17 13:00N 41°18' E 002°06'55977.0 170 / 151016.010.8 27.422.324.0
2019-Aug-17 12:59N 41°22' E 002°11'0 0.0
2019-Aug-17 12:29N 41°22' E 002°11'0 0.0
2019-Aug-17 11:59N 41°22' E 002°11'0 0.0
2019-Aug-17 11:29N 41°22' E 002°11'0 0.0
2019-Aug-17 10:59N 41°22' E 002°11'0 0.0
2019-Aug-17 10:29N 41°22' E 002°11'0 0.0
2019-Aug-17 09:59N 41°22' E 002°11'0 0.0
2019-Aug-17 09:29N 41°22' E 002°11'0 0.0
2019-Aug-17 08:59N 41°22' E 002°11'0 0.0
2019-Aug-17 08:29N 41°22' E 002°11'0 0.0
2019-Aug-17 07:59N 41°22' E 002°11'0 0.0
2019-Aug-17 07:29N 41°22' E 002°11'0 0.0
2019-Aug-17 06:59N 41°22' E 002°11'0 0.0
2019-Aug-17 06:26N 41°22' E 002°11'0 0.0
2019-Aug-17 05:59N 41°22' E 002°11'3 1.9
2019-Aug-17 04:23N 41°18' E 002°10'710.0
2019-Aug-17 03:41N 41°12' E 002°12'411.8
2019-Aug-17 03:23N 41°08' E 002°12'811.8
2019-Aug-17 02:41N 40°60' E 002°13'811.6
2019-Aug-17 02:00N 40°52' E 002°14'1615.9
2019-Aug-17 01:00N 40°36' E 002°12'10 8.4 230 / 111017.210.8 25.221.624.0
2019-Aug-16 23:51N 40°26' E 002°14'412.2
2019-Aug-16 23:29N 40°22' E 002°13'712.3
2019-Aug-16 22:55N 40°15' E 002°13'812.4
2019-Aug-16 22:16N 40°07' E 002°14'312.4
2019-Aug-16 22:00N 40°04' E 002°14'612.7
2019-Aug-16 21:30N 39°57' E 002°15'612.7
2019-Aug-16 21:00N 39°51' E 002°15'2411.8
2019-Aug-16 18:58N 39°28' E 002°24'612.8
2019-Aug-16 18:30N 39°26' E 002°31'612.7
2019-Aug-16 18:00N 39°30' E 002°38'3 6.9
2019-Aug-16 17:30N 39°33' E 002°38'0 0.3
2019-Aug-16 17:00N 39°33' E 002°38'0 0.0
2019-Aug-16 16:27N 39°33' E 002°38'0 0.0
2019-Aug-16 15:57N 39°33' E 002°38'0 0.0
2019-Aug-16 15:30N 39°33' E 002°38'0 0.0
2019-Aug-16 15:00N 39°33' E 002°38'0 0.0
2019-Aug-16 14:27N 39°33' E 002°38'0 0.0
2019-Aug-16 13:57N 39°33' E 002°38'0 0.0
2019-Aug-16 13:30N 39°33' E 002°38'0 0.0
2019-Aug-16 13:00N 39°33' E 002°38'0 0.0
2019-Aug-16 12:30N 39°33' E 002°38'0 0.0
2019-Aug-16 12:00N 39°33' E 002°38'0 0.0
2019-Aug-16 11:30N 39°33' E 002°38'4 7.1
2019-Aug-16 11:00N 39°30' E 002°36'476.1 280 / 61019.610.8 29.422.125.0
2019-Aug-16 10:57N 39°33' E 002°38'0 0.0
2019-Aug-16 10:27N 39°33' E 002°38'0 0.0
2019-Aug-16 10:00N 39°33' E 002°38'0 0.0
2019-Aug-16 09:30N 39°33' E 002°38'0 0.0
2019-Aug-16 08:57N 39°33' E 002°38'0 0.0
2019-Aug-16 08:27N 39°33' E 002°38'0 0.0
2019-Aug-16 08:00N 39°33' E 002°38'0 0.0
2019-Aug-16 07:30N 39°33' E 002°38'0 0.0
2019-Aug-16 07:00N 39°33' E 002°38'0 0.0
2019-Aug-16 06:27N 39°33' E 002°38'0 0.0
2019-Aug-16 06:00N 39°33' E 002°38'0 0.9
2019-Aug-16 05:30N 39°33' E 002°39'5 9.4
2019-Aug-16 05:00N 39°29' E 002°37'611.6
2019-Aug-16 04:30N 39°24' E 002°33'611.1
2019-Aug-16 04:00N 39°20' E 002°28'611.6
2019-Aug-16 03:30N 39°15' E 002°23'611.8
2019-Aug-16 03:00N 39°11' E 002°18'3912.2
2019-Aug-15 23:47N 38°41' E 001°45'312.5
2019-Aug-15 23:30N 38°38' E 001°42'2212.5
2019-Aug-15 21:47N 38°23' E 001°23'312.5
2019-Aug-15 21:30N 38°21' E 001°20'812.8
2019-Aug-15 20:52N 38°16' E 001°11'2012.9
2019-Aug-15 19:19N 38°04' E 000°50'412.7
2019-Aug-15 19:00N 38°02' E 000°46'612.7
2019-Aug-15 18:29N 37°58' E 000°40'712.8
2019-Aug-15 17:55N 37°54' E 000°32'512.9
2019-Aug-15 17:30N 37°51' E 000°26'612.9
2019-Aug-15 17:00N 37°47' E 000°20'1812.8
2019-Aug-15 15:34N 37°36' E 000°01'1012.6
2019-Aug-15 14:48N 37°31' W 000°09'412.5
2019-Aug-15 14:30N 37°28' W 000°13'612.2
2019-Aug-15 14:00N 37°25' W 000°19'612.2
2019-Aug-15 13:30N 37°21' W 000°25'612.5
2019-Aug-15 13:00N 37°17' W 000°31'612.5
2019-Aug-15 12:30N 37°14' W 000°38'612.6
2019-Aug-15 12:00N 37°10' W 000°44'8886.4
2019-Aug-15 11:00N 36°18' W 002°12'   350 / 201017.6 5.4 22.721.521.0
Track history (hours):
 
Tides and Currents Weather Stations Pressure Air Temp Water Temp Dewpoint Dewpoint Depression Visibility Wind Speed Wind Dir Waves Ship Positions

Independence of the Seas

Last reported at 2019-Aug-24 06:23 UTC. Time now 2019-Aug-24 06:42 UTC.
Position N 50°54' W 001°25'.

Length 339 m; draft 9 m.

Type: Passenger vessel. MMSI: 309374000.

Date/timePositionNaut miles runAvg speedWind from/ knotsBaromVisibWave heightAir tempDewpointWater temp
2019-Aug-24 06:23N 50°54' W 001°25'0 0.0
2019-Aug-24 05:53N 50°54' W 001°25'0 0.0
2019-Aug-24 05:17N 50°54' W 001°25'0 0.0
2019-Aug-24 04:59N 50°54' W 001°25'0 0.0
2019-Aug-24 04:29N 50°54' W 001°25'0 0.1
2019-Aug-24 04:00N 50°54' W 001°25'3 5.4
2019-Aug-24 03:30N 50°52' W 001°22'5 9.3
2019-Aug-24 03:00N 50°48' W 001°18'611.2
2019-Aug-24 02:30N 50°46' W 001°10'817.0
2019-Aug-24 02:00N 50°42' W 000°58'612.2
2019-Aug-24 01:31N 50°36' W 001°00'918.1
2019-Aug-24 01:01N 50°29' W 001°09'1019.5
2019-Aug-24 00:31N 50°25' W 001°23'1020.1
2019-Aug-24 00:00N 50°19' W 001°36'1020.2
2019-Aug-23 23:31N 50°12' W 001°47'1020.0
2019-Aug-23 23:01N 50°06' W 002°00'1121.0
2019-Aug-23 22:30N 50°00' W 002°14'1020.9
2019-Aug-23 22:00N 49°55' W 002°28'181197.7
2019-Aug-23 22:00N 49°48' W 002°54'816.6 090 / 221019.310.8 18.214.017.0
2019-Aug-23 21:30N 49°51' W 002°43'1020.3
2019-Aug-23 21:01N 49°47' W 002°57'1020.2
2019-Aug-23 20:31N 49°42' W 003°10'1020.2
2019-Aug-23 20:01N 49°36' W 003°23'1020.3
2019-Aug-23 19:31N 49°30' W 003°35'1020.3
2019-Aug-23 19:01N 49°23' W 003°47'1019.1
2019-Aug-23 18:31N 49°17' W 003°59'917.6
2019-Aug-23 18:01N 49°12' W 004°09'181045.0
2019-Aug-23 18:00N 49°00' W 004°30'919.3 080 / 221022.8 5.4 18.614.8
2019-Aug-23 17:31N 49°07' W 004°20'917.5
2019-Aug-23 17:00N 49°01' W 004°31'917.3
2019-Aug-23 16:31N 48°56' W 004°41'917.0
2019-Aug-23 16:01N 48°51' W 004°51'816.7
2019-Aug-23 15:31N 48°45' W 005°01'816.5
2019-Aug-23 15:01N 48°40' W 005°10'816.5
2019-Aug-23 14:30N 48°34' W 005°19'816.8
2019-Aug-23 14:01N 48°28' W 005°27'816.7
2019-Aug-23 13:31N 48°21' W 005°34'917.1
2019-Aug-23 13:00N 48°13' W 005°41'917.6
2019-Aug-23 12:31N 48°06' W 005°47'918.0
2019-Aug-23 12:01N 47°58' W 005°54'11625.2
2019-Aug-23 12:00N 47°48' W 006°00'2 3.7 100 / 171020.927.0 19.215.522.0
2019-Aug-23 11:30N 47°50' W 006°00'917.9
2019-Aug-23 11:01N 47°42' W 006°07'918.2
2019-Aug-23 10:31N 47°34' W 006°14'917.8
2019-Aug-23 10:00N 47°26' W 006°20'918.3
2019-Aug-23 09:31N 47°19' W 006°27'918.5
2019-Aug-23 09:01N 47°11' W 006°34'918.1
2019-Aug-23 08:30N 47°03' W 006°41'918.2
2019-Aug-23 08:00N 46°55' W 006°47'918.3
2019-Aug-23 07:31N 46°47' W 006°54'918.2
2019-Aug-23 07:01N 46°39' W 007°01'918.2
2019-Aug-23 06:31N 46°31' W 007°07'918.3
2019-Aug-23 06:01N 46°23' W 007°14'918.6
2019-Aug-23 05:31N 46°15' W 007°20'1018.9
2019-Aug-23 05:00N 46°07' W 007°27'918.4
2019-Aug-23 04:31N 45°59' W 007°33'1019.0
2019-Aug-23 04:00N 45°50' W 007°40'918.8
2019-Aug-23 03:30N 45°42' W 007°47'918.2
2019-Aug-23 03:00N 45°34' W 007°53'918.7
2019-Aug-23 02:31N 45°26' W 008°00'1618.2
2019-Aug-23 01:36N 45°12' W 008°12'1718.3
2019-Aug-23 00:40N 44°57' W 008°24'1418.3
2019-Aug-22 23:53N 44°45' W 008°33'1418.2
2019-Aug-22 23:06N 44°32' W 008°43'917.8
2019-Aug-22 22:36N 44°24' W 008°49'217.5
2019-Aug-22 22:30N 44°23' W 008°51'917.9
2019-Aug-22 22:00N 44°15' W 008°57'2219.7
2019-Aug-22 20:52N 43°56' W 009°12'720.1
2019-Aug-22 20:31N 43°49' W 009°17'24419.5
2019-Aug-22 07:58N 39°47' W 009°53'918.2
2019-Aug-22 07:30N 39°38' W 009°53'918.3
2019-Aug-22 07:00N 39°29' W 009°54'918.3
2019-Aug-22 06:30N 39°20' W 009°53'918.0
2019-Aug-22 06:01N 39°11' W 009°53'918.2
2019-Aug-22 05:31N 39°02' W 009°52'918.2
2019-Aug-22 05:01N 38°53' W 009°52'918.3
2019-Aug-22 04:31N 38°44' W 009°51'918.2
2019-Aug-22 04:01N 38°35' W 009°50'917.8
2019-Aug-22 03:31N 38°26' W 009°47'917.6
2019-Aug-22 03:01N 38°18' W 009°45'917.6
2019-Aug-22 02:31N 38°09' W 009°42'917.9
2019-Aug-22 02:00N 38°00' W 009°40'918.1
2019-Aug-22 01:31N 37°52' W 009°37'918.2
2019-Aug-22 01:01N 37°43' W 009°34'3202.9
2019-Aug-22 01:00N 37°42' W 009°30'816.6 330 / 151016.410.8 19.216.718.0
2019-Aug-22 00:30N 37°34' W 009°31'918.8
2019-Aug-22 00:00N 37°25' W 009°29'918.9
2019-Aug-21 23:30N 37°16' W 009°26'918.6
2019-Aug-21 23:01N 37°07' W 009°23'918.2
2019-Aug-21 22:30N 36°58' W 009°20'918.1
2019-Aug-21 22:00N 36°50' W 009°14'918.3
2019-Aug-21 21:30N 36°45' W 009°05'918.7
2019-Aug-21 21:01N 36°43' W 008°53'918.8
2019-Aug-21 20:30N 36°43' W 008°42'918.4
2019-Aug-21 20:00N 36°42' W 008°30'1018.5
2019-Aug-21 19:29N 36°41' W 008°18'121 6.2
2019-Aug-21 00:00N 35°54' W 006°00'2530.3 100 / 91016.410.8 20.417.825.0
2019-Aug-20 23:11N 35°60' W 005°30'102 5.6
2019-Aug-20 05:00N 36°30' W 003°30'8721.7 120 / 91014.4 5.4 22.520.4
2019-Aug-20 01:00N 36°36' W 001°42'18317.0 120 / 11014.510.8 25.121.825.0
2019-Aug-19 14:16N 39°26' W 000°17'2 7.2
2019-Aug-19 14:00N 39°27' W 000°18'0 0.5
2019-Aug-19 13:30N 39°28' W 000°18'0 0.0
2019-Aug-19 13:00N 39°28' W 000°18'0 0.0
2019-Aug-19 12:30N 39°28' W 000°18'0 0.0
2019-Aug-19 12:00N 39°28' W 000°18'4248.1
2019-Aug-19 12:00N 39°24' W 000°18'4 7.4 060 / 171015.827.0 22.817.724.0
2019-Aug-19 11:30N 39°28' W 000°18'0 0.0
2019-Aug-19 11:00N 39°28' W 000°18'0 0.0
2019-Aug-19 10:30N 39°28' W 000°18'0 0.0
2019-Aug-19 10:00N 39°28' W 000°18'0 0.0
2019-Aug-19 09:30N 39°28' W 000°18'0 0.0
2019-Aug-19 09:00N 39°28' W 000°18'0 0.0
2019-Aug-19 08:30N 39°28' W 000°18'0 0.0
2019-Aug-19 08:00N 39°28' W 000°18'0 0.0
2019-Aug-19 07:30N 39°28' W 000°18'0 0.0
2019-Aug-19 07:00N 39°28' W 000°18'0 0.0
2019-Aug-19 06:30N 39°28' W 000°18'0 0.0
2019-Aug-19 06:00N 39°28' W 000°18'0 0.0
2019-Aug-19 05:30N 39°28' W 000°18'0 0.1
2019-Aug-19 05:00N 39°28' W 000°18'3 5.3
2019-Aug-19 04:30N 39°25' W 000°16'5215.5
2019-Aug-19 01:11N 39°15' E 000°49'315.3
2019-Aug-19 01:00N 39°14' E 000°53'4 4.4
2019-Aug-19 00:00N 39°12' E 000°48'4027.1 160 / 221012.810.8 25.723.726.0
2019-Aug-18 22:31N 39°06' E 001°39'015.4
2019-Aug-18 22:30N 39°06' E 001°39'713.7
2019-Aug-18 22:00N 38°59' E 001°39'715.0
2019-Aug-18 21:30N 38°55' E 001°31'3 4.8
2019-Aug-18 20:52N 38°54' E 001°27'0 0.0
2019-Aug-18 20:28N 38°54' E 001°27'0 0.0
2019-Aug-18 19:58N 38°54' E 001°27'0 0.0
2019-Aug-18 19:22N 38°54' E 001°27'0 0.0
2019-Aug-18 18:55N 38°54' E 001°27'0 0.0
2019-Aug-18 18:28N 38°54' E 001°27'0 0.0
2019-Aug-18 17:55N 38°54' E 001°27'0 0.0
2019-Aug-18 17:28N 38°54' E 001°27'0 0.0
2019-Aug-18 16:55N 38°54' E 001°27'0 0.0
2019-Aug-18 16:28N 38°54' E 001°27'0 0.0
2019-Aug-18 15:58N 38°54' E 001°27'0 0.0
2019-Aug-18 15:16N 38°54' E 001°27'0 0.0
2019-Aug-18 14:58N 38°54' E 001°27'0 0.0
2019-Aug-18 14:28N 38°54' E 001°27'0 0.0
2019-Aug-18 13:52N 38°54' E 001°27'0 0.0
2019-Aug-18 13:28N 38°54' E 001°27'0 0.0
2019-Aug-18 12:58N 38°54' E 001°27'0 0.0
2019-Aug-18 12:28N 38°54' E 001°27'0 0.0
2019-Aug-18 11:55N 38°54' E 001°27'0 0.0
2019-Aug-18 11:25N 38°54' E 001°27'0 0.0
2019-Aug-18 10:58N 38°54' E 001°27'0 0.0
2019-Aug-18 10:28N 38°54' E 001°27'0 0.0
2019-Aug-18 09:55N 38°54' E 001°27'0 0.0
2019-Aug-18 09:13N 38°54' E 001°27'0 0.0
2019-Aug-18 08:58N 38°54' E 001°27'0 0.0
2019-Aug-18 08:25N 38°54' E 001°27'0 0.0
2019-Aug-18 07:58N 38°54' E 001°27'0 0.0
2019-Aug-18 06:49N 38°54' E 001°27'0 0.0
2019-Aug-18 06:28N 38°54' E 001°27'0 0.0
2019-Aug-18 05:58N 38°54' E 001°27'0 0.1
2019-Aug-18 05:12N 38°54' E 001°27'0 1.2
2019-Aug-18 04:55N 38°54' E 001°27'4 8.8
2019-Aug-18 04:30N 38°55' E 001°32'714.1
2019-Aug-18 04:00N 38°59' E 001°39'3812.5
2019-Aug-18 01:00N 39°36' E 001°48'1817.3 130 / 231014.110.8 25.722.624.0
2019-Aug-17 23:56N 39°54' E 001°52'613.9
2019-Aug-17 23:30N 39°60' E 001°54'2114.5
2019-Aug-17 22:03N 40°21' E 001°58'114.4
2019-Aug-17 22:00N 40°21' E 001°58'1014.2
2019-Aug-17 21:18N 40°31' E 002°01'2914.3
2019-Aug-17 19:17N 40°60' E 002°07'414.4
2019-Aug-17 19:00N 41°03' E 002°09'714.1
2019-Aug-17 18:30N 41°10' E 002°10'1110.8
2019-Aug-17 17:30N 41°21' E 002°10'0 0.6
2019-Aug-17 16:59N 41°22' E 002°11'0 0.0
2019-Aug-17 16:29N 41°22' E 002°11'0 0.0
2019-Aug-17 15:59N 41°22' E 002°11'0 0.0
2019-Aug-17 15:29N 41°22' E 002°11'0 0.0
2019-Aug-17 14:59N 41°22' E 002°11'0 0.0
2019-Aug-17 14:29N 41°22' E 002°11'0 0.0
2019-Aug-17 13:59N 41°22' E 002°11'0 0.0
2019-Aug-17 13:29N 41°22' E 002°11'510.0
2019-Aug-17 13:00N 41°18' E 002°06'55977.0 170 / 151016.010.8 27.422.324.0
2019-Aug-17 12:59N 41°22' E 002°11'0 0.0
2019-Aug-17 12:29N 41°22' E 002°11'0 0.0
2019-Aug-17 11:59N 41°22' E 002°11'0 0.0
2019-Aug-17 11:29N 41°22' E 002°11'0 0.0
2019-Aug-17 10:59N 41°22' E 002°11'0 0.0
2019-Aug-17 10:29N 41°22' E 002°11'0 0.0
2019-Aug-17 09:59N 41°22' E 002°11'0 0.0
2019-Aug-17 09:29N 41°22' E 002°11'0 0.0
2019-Aug-17 08:59N 41°22' E 002°11'0 0.0
2019-Aug-17 08:29N 41°22' E 002°11'0 0.0
2019-Aug-17 07:59N 41°22' E 002°11'0 0.0
2019-Aug-17 07:29N 41°22' E 002°11'0 0.0
2019-Aug-17 06:59N 41°22' E 002°11'0 0.0
2019-Aug-17 06:26N 41°22' E 002°11'0 0.0
2019-Aug-17 05:59N 41°22' E 002°11'3 1.9
2019-Aug-17 04:23N 41°18' E 002°10'710.0
2019-Aug-17 03:41N 41°12' E 002°12'411.8
2019-Aug-17 03:23N 41°08' E 002°12'811.8
2019-Aug-17 02:41N 40°60' E 002°13'811.6
2019-Aug-17 02:00N 40°52' E 002°14'1615.9
2019-Aug-17 01:00N 40°36' E 002°12'10 8.4 230 / 111017.210.8 25.221.624.0
2019-Aug-16 23:51N 40°26' E 002°14'412.2
2019-Aug-16 23:29N 40°22' E 002°13'712.3
2019-Aug-16 22:55N 40°15' E 002°13'812.4
2019-Aug-16 22:16N 40°07' E 002°14'312.4
2019-Aug-16 22:00N 40°04' E 002°14'612.7
2019-Aug-16 21:30N 39°57' E 002°15'612.7
2019-Aug-16 21:00N 39°51' E 002°15'2411.8
2019-Aug-16 18:58N 39°28' E 002°24'612.8
2019-Aug-16 18:30N 39°26' E 002°31'612.7
2019-Aug-16 18:00N 39°30' E 002°38'3 6.9
2019-Aug-16 17:30N 39°33' E 002°38'0 0.3
2019-Aug-16 17:00N 39°33' E 002°38'0 0.0
2019-Aug-16 16:27N 39°33' E 002°38'0 0.0
2019-Aug-16 15:57N 39°33' E 002°38'0 0.0
2019-Aug-16 15:30N 39°33' E 002°38'0 0.0
2019-Aug-16 15:00N 39°33' E 002°38'0 0.0
2019-Aug-16 14:27N 39°33' E 002°38'0 0.0
2019-Aug-16 13:57N 39°33' E 002°38'0 0.0
2019-Aug-16 13:30N 39°33' E 002°38'0 0.0
2019-Aug-16 13:00N 39°33' E 002°38'0 0.0
2019-Aug-16 12:30N 39°33' E 002°38'0 0.0
2019-Aug-16 12:00N 39°33' E 002°38'0 0.0
2019-Aug-16 11:30N 39°33' E 002°38'4 7.1
2019-Aug-16 11:00N 39°30' E 002°36'476.1 280 / 61019.610.8 29.422.125.0
2019-Aug-16 10:57N 39°33' E 002°38'0 0.0
2019-Aug-16 10:27N 39°33' E 002°38'0 0.0
2019-Aug-16 10:00N 39°33' E 002°38'0 0.0
2019-Aug-16 09:30N 39°33' E 002°38'0 0.0
2019-Aug-16 08:57N 39°33' E 002°38'0 0.0
2019-Aug-16 08:27N 39°33' E 002°38'0 0.0
2019-Aug-16 08:00N 39°33' E 002°38'0 0.0
2019-Aug-16 07:30N 39°33' E 002°38'0 0.0
2019-Aug-16 07:00N 39°33' E 002°38'0 0.0
2019-Aug-16 06:27N 39°33' E 002°38'0 0.0
2019-Aug-16 06:00N 39°33' E 002°38'0 0.9
2019-Aug-16 05:30N 39°33' E 002°39'5 9.4
2019-Aug-16 05:00N 39°29' E 002°37'611.6
2019-Aug-16 04:30N 39°24' E 002°33'611.1
2019-Aug-16 04:00N 39°20' E 002°28'611.6
2019-Aug-16 03:30N 39°15' E 002°23'611.8
2019-Aug-16 03:00N 39°11' E 002°18'3912.2
2019-Aug-15 23:47N 38°41' E 001°45'312.5
2019-Aug-15 23:30N 38°38' E 001°42'2212.5
2019-Aug-15 21:47N 38°23' E 001°23'312.5
2019-Aug-15 21:30N 38°21' E 001°20'812.8
2019-Aug-15 20:52N 38°16' E 001°11'2012.9
2019-Aug-15 19:19N 38°04' E 000°50'412.7
2019-Aug-15 19:00N 38°02' E 000°46'612.7
2019-Aug-15 18:29N 37°58' E 000°40'712.8
2019-Aug-15 17:55N 37°54' E 000°32'512.9
2019-Aug-15 17:30N 37°51' E 000°26'612.9
2019-Aug-15 17:00N 37°47' E 000°20'1812.8
2019-Aug-15 15:34N 37°36' E 000°01'1012.6
2019-Aug-15 14:48N 37°31' W 000°09'412.5
2019-Aug-15 14:30N 37°28' W 000°13'612.2
2019-Aug-15 14:00N 37°25' W 000°19'612.2
2019-Aug-15 13:30N 37°21' W 000°25'612.5
2019-Aug-15 13:00N 37°17' W 000°31'612.5
2019-Aug-15 12:30N 37°14' W 000°38'612.6
2019-Aug-15 12:00N 37°10' W 000°44'8886.4
2019-Aug-15 11:00N 36°18' W 002°12'   350 / 201017.6 5.4 22.721.521.0

Dump ship's entire track history